sensor_id;sensor_type;location;lat;lon;timestamp;P1;durP1;ratioP1;P2;durP2;ratioP2
17181;SDS011;8706;48.254;16.422;2023-11-19T00:00:45;7.70;;;6.90;;
17181;SDS011;8706;48.254;16.422;2023-11-19T00:03:13;7.80;;;7.00;;
17181;SDS011;8706;48.254;16.422;2023-11-19T00:05:40;7.93;;;6.73;;
17181;SDS011;8706;48.254;16.422;2023-11-19T00:08:07;7.70;;;6.90;;
17181;SDS011;8706;48.254;16.422;2023-11-19T00:10:34;7.73;;;6.97;;
17181;SDS011;8706;48.254;16.422;2023-11-19T00:13:01;7.80;;;6.97;;
17181;SDS011;8706;48.254;16.422;2023-11-19T00:15:29;8.30;;;7.00;;
17181;SDS011;8706;48.254;16.422;2023-11-19T00:17:56;7.60;;;6.67;;
17181;SDS011;8706;48.254;16.422;2023-11-19T00:20:24;7.23;;;6.53;;
17181;SDS011;8706;48.254;16.422;2023-11-19T00:22:51;9.20;;;7.37;;
17181;SDS011;8706;48.254;16.422;2023-11-19T00:25:18;7.43;;;6.50;;
17181;SDS011;8706;48.254;16.422;2023-11-19T00:27:46;8.23;;;6.80;;
17181;SDS011;8706;48.254;16.422;2023-11-19T00:30:13;7.07;;;6.37;;
17181;SDS011;8706;48.254;16.422;2023-11-19T00:32:40;7.80;;;6.87;;
17181;SDS011;8706;48.254;16.422;2023-11-19T00:35:08;6.93;;;6.20;;
17181;SDS011;8706;48.254;16.422;2023-11-19T00:37:37;7.53;;;6.77;;
17181;SDS011;8706;48.254;16.422;2023-11-19T00:40:05;7.80;;;7.00;;
17181;SDS011;8706;48.254;16.422;2023-11-19T00:42:35;8.03;;;6.63;;
17181;SDS011;8706;48.254;16.422;2023-11-19T00:45:02;7.83;;;6.70;;
17181;SDS011;8706;48.254;16.422;2023-11-19T00:47:34;7.43;;;6.70;;
17181;SDS011;8706;48.254;16.422;2023-11-19T00:50:00;7.60;;;6.73;;
17181;SDS011;8706;48.254;16.422;2023-11-19T00:52:27;7.13;;;6.43;;
17181;SDS011;8706;48.254;16.422;2023-11-19T00:54:55;7.00;;;6.30;;
17181;SDS011;8706;48.254;16.422;2023-11-19T00:57:22;7.20;;;6.50;;
17181;SDS011;8706;48.254;16.422;2023-11-19T00:59:51;7.47;;;6.50;;
17181;SDS011;8706;48.254;16.422;2023-11-19T01:02:18;7.60;;;6.60;;
17181;SDS011;8706;48.254;16.422;2023-11-19T01:04:45;7.33;;;6.37;;
17181;SDS011;8706;48.254;16.422;2023-11-19T01:07:12;7.00;;;6.30;;
17181;SDS011;8706;48.254;16.422;2023-11-19T01:09:41;6.80;;;6.10;;
17181;SDS011;8706;48.254;16.422;2023-11-19T01:12:09;7.00;;;6.27;;
17181;SDS011;8706;48.254;16.422;2023-11-19T01:14:36;7.77;;;6.97;;
17181;SDS011;8706;48.254;16.422;2023-11-19T01:17:03;7.73;;;6.67;;
17181;SDS011;8706;48.254;16.422;2023-11-19T01:19:31;7.37;;;6.67;;
17181;SDS011;8706;48.254;16.422;2023-11-19T01:21:57;7.07;;;6.37;;
17181;SDS011;8706;48.254;16.422;2023-11-19T01:24:24;7.90;;;6.70;;
17181;SDS011;8706;48.254;16.422;2023-11-19T01:26:53;7.50;;;6.70;;
17181;SDS011;8706;48.254;16.422;2023-11-19T01:29:21;7.10;;;6.37;;
17181;SDS011;8706;48.254;16.422;2023-11-19T01:31:48;7.23;;;6.43;;
17181;SDS011;8706;48.254;16.422;2023-11-19T01:34:16;7.57;;;6.87;;
17181;SDS011;8706;48.254;16.422;2023-11-19T01:36:43;7.27;;;6.57;;
17181;SDS011;8706;48.254;16.422;2023-11-19T01:39:11;7.90;;;6.50;;
17181;SDS011;8706;48.254;16.422;2023-11-19T01:41:41;6.50;;;5.87;;
17181;SDS011;8706;48.254;16.422;2023-11-19T01:44:08;6.67;;;5.97;;
17181;SDS011;8706;48.254;16.422;2023-11-19T01:46:38;6.77;;;6.07;;
17181;SDS011;8706;48.254;16.422;2023-11-19T01:49:07;7.03;;;6.20;;
17181;SDS011;8706;48.254;16.422;2023-11-19T01:51:35;6.77;;;6.07;;
17181;SDS011;8706;48.254;16.422;2023-11-19T01:54:02;7.17;;;6.47;;
17181;SDS011;8706;48.254;16.422;2023-11-19T01:56:29;7.20;;;6.50;;
17181;SDS011;8706;48.254;16.422;2023-11-19T01:58:58;6.90;;;5.93;;
17181;SDS011;8706;48.254;16.422;2023-11-19T02:01:25;6.60;;;5.90;;
17181;SDS011;8706;48.254;16.422;2023-11-19T02:03:54;6.83;;;5.93;;
17181;SDS011;8706;48.254;16.422;2023-11-19T02:06:20;6.87;;;6.17;;
17181;SDS011;8706;48.254;16.422;2023-11-19T02:08:49;6.97;;;6.27;;
17181;SDS011;8706;48.254;16.422;2023-11-19T02:11:17;6.90;;;6.20;;
17181;SDS011;8706;48.254;16.422;2023-11-19T02:13:43;7.40;;;6.57;;
17181;SDS011;8706;48.254;16.422;2023-11-19T02:16:10;7.33;;;6.63;;
17181;SDS011;8706;48.254;16.422;2023-11-19T02:18:37;7.23;;;6.20;;
17181;SDS011;8706;48.254;16.422;2023-11-19T02:21:06;7.10;;;5.90;;
17181;SDS011;8706;48.254;16.422;2023-11-19T02:23:32;6.83;;;6.13;;
17181;SDS011;8706;48.254;16.422;2023-11-19T02:26:03;6.67;;;6.00;;
17181;SDS011;8706;48.254;16.422;2023-11-19T02:28:38;7.10;;;6.40;;
17181;SDS011;8706;48.254;16.422;2023-11-19T02:31:05;6.57;;;5.90;;
17181;SDS011;8706;48.254;16.422;2023-11-19T02:33:34;6.23;;;5.63;;
17181;SDS011;8706;48.254;16.422;2023-11-19T02:36:01;6.33;;;5.70;;
17181;SDS011;8706;48.254;16.422;2023-11-19T02:38:28;7.20;;;6.47;;
17181;SDS011;8706;48.254;16.422;2023-11-19T02:40:55;6.63;;;5.90;;
17181;SDS011;8706;48.254;16.422;2023-11-19T02:43:22;7.00;;;6.30;;
17181;SDS011;8706;48.254;16.422;2023-11-19T02:45:51;6.90;;;6.20;;
17181;SDS011;8706;48.254;16.422;2023-11-19T02:48:19;6.80;;;6.10;;
17181;SDS011;8706;48.254;16.422;2023-11-19T02:50:46;6.77;;;6.07;;
17181;SDS011;8706;48.254;16.422;2023-11-19T02:53:13;6.90;;;6.20;;
17181;SDS011;8706;48.254;16.422;2023-11-19T02:55:41;6.50;;;5.80;;
17181;SDS011;8706;48.254;16.422;2023-11-19T02:58:13;6.10;;;5.50;;
17181;SDS011;8706;48.254;16.422;2023-11-19T03:00:48;6.57;;;5.87;;
17181;SDS011;8706;48.254;16.422;2023-11-19T03:03:22;5.97;;;5.37;;
17181;SDS011;8706;48.254;16.422;2023-11-19T03:05:54;6.23;;;5.63;;
17181;SDS011;8706;48.254;16.422;2023-11-19T03:08:20;6.37;;;5.77;;
17181;SDS011;8706;48.254;16.422;2023-11-19T03:10:48;5.63;;;5.13;;
17181;SDS011;8706;48.254;16.422;2023-11-19T03:13:15;6.60;;;5.90;;
17181;SDS011;8706;48.254;16.422;2023-11-19T03:15:43;6.27;;;5.40;;
17181;SDS011;8706;48.254;16.422;2023-11-19T03:18:11;5.90;;;5.30;;
17181;SDS011;8706;48.254;16.422;2023-11-19T03:20:38;5.90;;;5.30;;
17181;SDS011;8706;48.254;16.422;2023-11-19T03:23:05;6.00;;;5.43;;
17181;SDS011;8706;48.254;16.422;2023-11-19T03:25:32;6.30;;;5.70;;
17181;SDS011;8706;48.254;16.422;2023-11-19T03:27:59;5.80;;;5.20;;
17181;SDS011;8706;48.254;16.422;2023-11-19T03:30:27;5.73;;;5.13;;
17181;SDS011;8706;48.254;16.422;2023-11-19T03:32:54;5.73;;;5.17;;
17181;SDS011;8706;48.254;16.422;2023-11-19T03:35:22;5.90;;;5.37;;
17181;SDS011;8706;48.254;16.422;2023-11-19T03:37:50;5.60;;;5.10;;
17181;SDS011;8706;48.254;16.422;2023-11-19T03:40:17;5.40;;;4.90;;
17181;SDS011;8706;48.254;16.422;2023-11-19T03:42:45;5.67;;;5.13;;
17181;SDS011;8706;48.254;16.422;2023-11-19T03:45:12;5.37;;;4.90;;
17181;SDS011;8706;48.254;16.422;2023-11-19T03:47:39;5.83;;;5.23;;
17181;SDS011;8706;48.254;16.422;2023-11-19T03:50:06;5.63;;;5.10;;
17181;SDS011;8706;48.254;16.422;2023-11-19T03:52:35;5.50;;;5.00;;
17181;SDS011;8706;48.254;16.422;2023-11-19T03:55:03;5.27;;;4.77;;
17181;SDS011;8706;48.254;16.422;2023-11-19T03:57:30;5.33;;;4.83;;
17181;SDS011;8706;48.254;16.422;2023-11-19T03:59:57;5.67;;;5.13;;
17181;SDS011;8706;48.254;16.422;2023-11-19T04:02:24;5.30;;;4.80;;
17181;SDS011;8706;48.254;16.422;2023-11-19T04:04:53;5.30;;;4.80;;
17181;SDS011;8706;48.254;16.422;2023-11-19T04:07:20;5.67;;;5.07;;
17181;SDS011;8706;48.254;16.422;2023-11-19T04:09:49;5.23;;;4.73;;
17181;SDS011;8706;48.254;16.422;2023-11-19T04:12:16;5.20;;;4.70;;
17181;SDS011;8706;48.254;16.422;2023-11-19T04:14:43;5.90;;;5.40;;
17181;SDS011;8706;48.254;16.422;2023-11-19T04:17:10;5.27;;;4.77;;
17181;SDS011;8706;48.254;16.422;2023-11-19T04:19:37;4.97;;;4.57;;
17181;SDS011;8706;48.254;16.422;2023-11-19T04:22:06;5.57;;;5.07;;
17181;SDS011;8706;48.254;16.422;2023-11-19T04:24:34;4.90;;;4.50;;
17181;SDS011;8706;48.254;16.422;2023-11-19T04:27:02;5.40;;;4.90;;
17181;SDS011;8706;48.254;16.422;2023-11-19T04:29:31;5.17;;;4.70;;
17181;SDS011;8706;48.254;16.422;2023-11-19T04:31:59;4.90;;;4.50;;
17181;SDS011;8706;48.254;16.422;2023-11-19T04:34:26;5.67;;;5.10;;
17181;SDS011;8706;48.254;16.422;2023-11-19T04:36:53;5.43;;;4.93;;
17181;SDS011;8706;48.254;16.422;2023-11-19T04:39:20;4.90;;;4.50;;
17181;SDS011;8706;48.254;16.422;2023-11-19T04:41:47;4.90;;;4.40;;
17181;SDS011;8706;48.254;16.422;2023-11-19T04:44:16;5.53;;;5.03;;
17181;SDS011;8706;48.254;16.422;2023-11-19T04:46:43;4.97;;;4.47;;
17181;SDS011;8706;48.254;16.422;2023-11-19T04:49:10;5.20;;;4.60;;
17181;SDS011;8706;48.254;16.422;2023-11-19T04:51:38;4.77;;;4.27;;
17181;SDS011;8706;48.254;16.422;2023-11-19T04:54:06;4.90;;;4.40;;
17181;SDS011;8706;48.254;16.422;2023-11-19T04:56:34;4.77;;;4.30;;
17181;SDS011;8706;48.254;16.422;2023-11-19T04:59:01;4.87;;;4.47;;
17181;SDS011;8706;48.254;16.422;2023-11-19T05:01:29;5.40;;;4.70;;
17181;SDS011;8706;48.254;16.422;2023-11-19T05:03:56;5.00;;;4.50;;
17181;SDS011;8706;48.254;16.422;2023-11-19T05:06:25;5.10;;;4.60;;
17181;SDS011;8706;48.254;16.422;2023-11-19T05:08:54;4.97;;;4.53;;
17181;SDS011;8706;48.254;16.422;2023-11-19T05:11:21;4.67;;;4.27;;
17181;SDS011;8706;48.254;16.422;2023-11-19T05:13:48;4.73;;;4.33;;
17181;SDS011;8706;48.254;16.422;2023-11-19T05:16:16;5.13;;;4.60;;
17181;SDS011;8706;48.254;16.422;2023-11-19T05:18:45;4.63;;;4.23;;
17181;SDS011;8706;48.254;16.422;2023-11-19T05:21:12;5.30;;;4.80;;
17181;SDS011;8706;48.254;16.422;2023-11-19T05:23:39;4.97;;;4.47;;
17181;SDS011;8706;48.254;16.422;2023-11-19T05:26:07;4.47;;;4.07;;
17181;SDS011;8706;48.254;16.422;2023-11-19T05:28:35;4.87;;;4.47;;
17181;SDS011;8706;48.254;16.422;2023-11-19T05:31:04;4.70;;;4.00;;
17181;SDS011;8706;48.254;16.422;2023-11-19T05:33:32;4.97;;;4.47;;
17181;SDS011;8706;48.254;16.422;2023-11-19T05:36:00;4.37;;;4.00;;
17181;SDS011;8706;48.254;16.422;2023-11-19T05:38:28;5.20;;;4.70;;
17181;SDS011;8706;48.254;16.422;2023-11-19T05:40:55;4.80;;;4.30;;
17181;SDS011;8706;48.254;16.422;2023-11-19T05:43:22;4.80;;;4.30;;
17181;SDS011;8706;48.254;16.422;2023-11-19T05:45:49;5.13;;;4.63;;
17181;SDS011;8706;48.254;16.422;2023-11-19T05:48:16;4.33;;;3.93;;
17181;SDS011;8706;48.254;16.422;2023-11-19T05:50:43;4.73;;;4.33;;
17181;SDS011;8706;48.254;16.422;2023-11-19T05:53:11;4.20;;;3.80;;
17181;SDS011;8706;48.254;16.422;2023-11-19T05:55:39;4.83;;;4.40;;
17181;SDS011;8706;48.254;16.422;2023-11-19T05:58:13;4.57;;;4.17;;
17181;SDS011;8706;48.254;16.422;2023-11-19T06:00:40;4.33;;;3.93;;
17181;SDS011;8706;48.254;16.422;2023-11-19T06:03:07;4.60;;;4.20;;
17181;SDS011;8706;48.254;16.422;2023-11-19T06:05:34;5.00;;;4.60;;
17181;SDS011;8706;48.254;16.422;2023-11-19T06:08:01;4.47;;;4.07;;
17181;SDS011;8706;48.254;16.422;2023-11-19T06:10:29;4.23;;;3.83;;
17181;SDS011;8706;48.254;16.422;2023-11-19T06:12:57;3.90;;;3.60;;
17181;SDS011;8706;48.254;16.422;2023-11-19T06:15:24;4.40;;;4.00;;
17181;SDS011;8706;48.254;16.422;2023-11-19T06:17:52;4.30;;;3.90;;
17181;SDS011;8706;48.254;16.422;2023-11-19T06:20:19;4.90;;;4.40;;
17181;SDS011;8706;48.254;16.422;2023-11-19T06:22:46;4.23;;;3.83;;
17181;SDS011;8706;48.254;16.422;2023-11-19T06:25:13;4.70;;;4.20;;
17181;SDS011;8706;48.254;16.422;2023-11-19T06:27:42;4.87;;;4.47;;
17181;SDS011;8706;48.254;16.422;2023-11-19T06:30:09;4.07;;;3.70;;
17181;SDS011;8706;48.254;16.422;2023-11-19T06:32:37;4.40;;;4.00;;
17181;SDS011;8706;48.254;16.422;2023-11-19T06:35:04;4.20;;;3.80;;
17181;SDS011;8706;48.254;16.422;2023-11-19T06:37:31;4.27;;;3.87;;
17181;SDS011;8706;48.254;16.422;2023-11-19T06:39:58;4.37;;;3.80;;
17181;SDS011;8706;48.254;16.422;2023-11-19T06:42:25;4.03;;;3.63;;
17181;SDS011;8706;48.254;16.422;2023-11-19T06:44:53;4.30;;;3.90;;
17181;SDS011;8706;48.254;16.422;2023-11-19T06:47:22;4.40;;;4.00;;
17181;SDS011;8706;48.254;16.422;2023-11-19T06:49:51;4.27;;;3.87;;
17181;SDS011;8706;48.254;16.422;2023-11-19T06:52:18;4.70;;;4.30;;
17181;SDS011;8706;48.254;16.422;2023-11-19T06:54:45;4.40;;;4.00;;
17181;SDS011;8706;48.254;16.422;2023-11-19T06:57:12;4.30;;;3.90;;
17181;SDS011;8706;48.254;16.422;2023-11-19T06:59:39;4.20;;;3.80;;
17181;SDS011;8706;48.254;16.422;2023-11-19T07:02:07;3.60;;;3.30;;
17181;SDS011;8706;48.254;16.422;2023-11-19T07:04:35;4.40;;;4.00;;
17181;SDS011;8706;48.254;16.422;2023-11-19T07:07:02;3.73;;;3.43;;
17181;SDS011;8706;48.254;16.422;2023-11-19T07:09:30;4.07;;;3.67;;
17181;SDS011;8706;48.254;16.422;2023-11-19T07:11:57;4.00;;;3.70;;
17181;SDS011;8706;48.254;16.422;2023-11-19T07:14:25;4.03;;;3.63;;
17181;SDS011;8706;48.254;16.422;2023-11-19T07:16:51;3.97;;;3.63;;
17181;SDS011;8706;48.254;16.422;2023-11-19T07:19:20;4.10;;;3.70;;
17181;SDS011;8706;48.254;16.422;2023-11-19T07:21:47;4.07;;;3.67;;
17181;SDS011;8706;48.254;16.422;2023-11-19T07:24:14;4.03;;;3.60;;
17181;SDS011;8706;48.254;16.422;2023-11-19T07:26:42;4.17;;;3.80;;
17181;SDS011;8706;48.254;16.422;2023-11-19T07:29:09;3.80;;;3.40;;
17181;SDS011;8706;48.254;16.422;2023-11-19T07:31:36;4.30;;;3.90;;
17181;SDS011;8706;48.254;16.422;2023-11-19T07:34:03;4.00;;;3.70;;
17181;SDS011;8706;48.254;16.422;2023-11-19T07:36:32;3.70;;;3.40;;
17181;SDS011;8706;48.254;16.422;2023-11-19T07:39:00;3.77;;;3.47;;
17181;SDS011;8706;48.254;16.422;2023-11-19T07:41:30;3.70;;;3.40;;
17181;SDS011;8706;48.254;16.422;2023-11-19T07:43:56;3.87;;;3.57;;
17181;SDS011;8706;48.254;16.422;2023-11-19T07:46:23;3.73;;;3.43;;
17181;SDS011;8706;48.254;16.422;2023-11-19T07:48:51;3.93;;;3.63;;
17181;SDS011;8706;48.254;16.422;2023-11-19T07:51:18;3.63;;;3.33;;
17181;SDS011;8706;48.254;16.422;2023-11-19T07:53:47;3.57;;;3.27;;
17181;SDS011;8706;48.254;16.422;2023-11-19T07:56:14;3.67;;;3.37;;
17181;SDS011;8706;48.254;16.422;2023-11-19T07:58:41;3.70;;;3.40;;
17181;SDS011;8706;48.254;16.422;2023-11-19T08:01:08;3.70;;;3.40;;
17181;SDS011;8706;48.254;16.422;2023-11-19T08:03:35;3.57;;;3.27;;
17181;SDS011;8706;48.254;16.422;2023-11-19T08:06:03;3.70;;;3.40;;
17181;SDS011;8706;48.254;16.422;2023-11-19T08:08:30;3.50;;;3.20;;
17181;SDS011;8706;48.254;16.422;2023-11-19T08:10:59;3.20;;;3.00;;
17181;SDS011;8706;48.254;16.422;2023-11-19T08:13:27;3.60;;;3.30;;
17181;SDS011;8706;48.254;16.422;2023-11-19T08:15:54;3.73;;;3.43;;
17181;SDS011;8706;48.254;16.422;2023-11-19T08:18:20;3.37;;;3.07;;
17181;SDS011;8706;48.254;16.422;2023-11-19T08:20:47;3.50;;;3.20;;
17181;SDS011;8706;48.254;16.422;2023-11-19T08:23:17;3.63;;;3.33;;
17181;SDS011;8706;48.254;16.422;2023-11-19T08:25:44;3.20;;;3.00;;
17181;SDS011;8706;48.254;16.422;2023-11-19T08:28:12;3.00;;;2.80;;
17181;SDS011;8706;48.254;16.422;2023-11-19T08:30:40;3.30;;;3.00;;
17181;SDS011;8706;48.254;16.422;2023-11-19T08:33:06;3.40;;;3.10;;
17181;SDS011;8706;48.254;16.422;2023-11-19T08:35:33;3.10;;;2.90;;
17181;SDS011;8706;48.254;16.422;2023-11-19T08:38:00;3.30;;;3.00;;
17181;SDS011;8706;48.254;16.422;2023-11-19T08:40:27;3.17;;;2.97;;
17181;SDS011;8706;48.254;16.422;2023-11-19T08:42:54;3.40;;;3.10;;
17181;SDS011;8706;48.254;16.422;2023-11-19T08:45:23;3.10;;;2.80;;
17181;SDS011;8706;48.254;16.422;2023-11-19T08:47:50;3.27;;;2.97;;
17181;SDS011;8706;48.254;16.422;2023-11-19T08:50:16;3.30;;;3.00;;
17181;SDS011;8706;48.254;16.422;2023-11-19T08:52:43;3.50;;;3.20;;
17181;SDS011;8706;48.254;16.422;2023-11-19T08:55:10;3.37;;;3.10;;
17181;SDS011;8706;48.254;16.422;2023-11-19T08:57:38;3.27;;;2.97;;
17181;SDS011;8706;48.254;16.422;2023-11-19T09:00:06;3.50;;;3.20;;
17181;SDS011;8706;48.254;16.422;2023-11-19T09:02:35;3.50;;;3.20;;
17181;SDS011;8706;48.254;16.422;2023-11-19T09:05:02;3.10;;;2.80;;
17181;SDS011;8706;48.254;16.422;2023-11-19T09:07:29;3.13;;;2.83;;
17181;SDS011;8706;48.254;16.422;2023-11-19T09:09:55;3.07;;;2.77;;
17181;SDS011;8706;48.254;16.422;2023-11-19T09:12:22;3.40;;;3.10;;
17181;SDS011;8706;48.254;16.422;2023-11-19T09:14:49;3.03;;;2.83;;
17181;SDS011;8706;48.254;16.422;2023-11-19T09:17:16;2.83;;;2.63;;
17181;SDS011;8706;48.254;16.422;2023-11-19T09:19:45;2.97;;;2.70;;
17181;SDS011;8706;48.254;16.422;2023-11-19T09:22:11;3.03;;;2.83;;
17181;SDS011;8706;48.254;16.422;2023-11-19T09:24:38;3.17;;;2.87;;
17181;SDS011;8706;48.254;16.422;2023-11-19T09:27:05;3.23;;;2.97;;
17181;SDS011;8706;48.254;16.422;2023-11-19T09:29:32;2.87;;;2.67;;
17181;SDS011;8706;48.254;16.422;2023-11-19T09:31:59;3.30;;;3.00;;
17181;SDS011;8706;48.254;16.422;2023-11-19T09:34:26;2.93;;;2.73;;
17181;SDS011;8706;48.254;16.422;2023-11-19T09:36:55;3.00;;;2.80;;
17181;SDS011;8706;48.254;16.422;2023-11-19T09:39:22;2.83;;;2.63;;
17181;SDS011;8706;48.254;16.422;2023-11-19T09:41:50;2.77;;;2.57;;
17181;SDS011;8706;48.254;16.422;2023-11-19T09:44:17;2.90;;;2.70;;
17181;SDS011;8706;48.254;16.422;2023-11-19T09:46:44;3.20;;;2.90;;
17181;SDS011;8706;48.254;16.422;2023-11-19T09:49:14;2.90;;;2.70;;
17181;SDS011;8706;48.254;16.422;2023-11-19T09:51:42;3.00;;;2.80;;
17181;SDS011;8706;48.254;16.422;2023-11-19T09:54:10;3.27;;;2.97;;
17181;SDS011;8706;48.254;16.422;2023-11-19T09:56:38;3.00;;;2.80;;
17181;SDS011;8706;48.254;16.422;2023-11-19T09:59:06;2.73;;;2.53;;
17181;SDS011;8706;48.254;16.422;2023-11-19T10:01:33;2.70;;;2.50;;
17181;SDS011;8706;48.254;16.422;2023-11-19T10:04:00;2.97;;;2.77;;
17181;SDS011;8706;48.254;16.422;2023-11-19T10:06:27;2.80;;;2.60;;
17181;SDS011;8706;48.254;16.422;2023-11-19T10:08:54;2.67;;;2.47;;
17181;SDS011;8706;48.254;16.422;2023-11-19T10:11:23;2.87;;;2.67;;
17181;SDS011;8706;48.254;16.422;2023-11-19T10:13:50;2.87;;;2.67;;
17181;SDS011;8706;48.254;16.422;2023-11-19T10:16:18;3.03;;;2.83;;
17181;SDS011;8706;48.254;16.422;2023-11-19T10:18:45;2.27;;;2.13;;
17181;SDS011;8706;48.254;16.422;2023-11-19T10:21:13;3.20;;;2.90;;
17181;SDS011;8706;48.254;16.422;2023-11-19T10:23:47;2.50;;;2.30;;
17181;SDS011;8706;48.254;16.422;2023-11-19T10:26:17;2.97;;;2.77;;
17181;SDS011;8706;48.254;16.422;2023-11-19T10:28:45;2.80;;;2.60;;
17181;SDS011;8706;48.254;16.422;2023-11-19T10:31:13;2.50;;;2.30;;
17181;SDS011;8706;48.254;16.422;2023-11-19T10:33:40;3.23;;;2.93;;
17181;SDS011;8706;48.254;16.422;2023-11-19T10:36:07;2.73;;;2.53;;
17181;SDS011;8706;48.254;16.422;2023-11-19T10:38:34;2.90;;;2.70;;
17181;SDS011;8706;48.254;16.422;2023-11-19T10:41:01;2.77;;;2.57;;
17181;SDS011;8706;48.254;16.422;2023-11-19T10:43:29;3.20;;;2.90;;
17181;SDS011;8706;48.254;16.422;2023-11-19T10:46:08;3.27;;;2.97;;
17181;SDS011;8706;48.254;16.422;2023-11-19T10:48:36;2.83;;;2.63;;
17181;SDS011;8706;48.254;16.422;2023-11-19T10:51:05;3.23;;;2.93;;
17181;SDS011;8706;48.254;16.422;2023-11-19T10:53:33;3.07;;;2.87;;
17181;SDS011;8706;48.254;16.422;2023-11-19T10:56:04;3.40;;;3.10;;
17181;SDS011;8706;48.254;16.422;2023-11-19T10:58:36;2.80;;;2.60;;
17181;SDS011;8706;48.254;16.422;2023-11-19T11:01:11;3.80;;;2.63;;
17181;SDS011;8706;48.254;16.422;2023-11-19T11:03:42;3.20;;;2.90;;
17181;SDS011;8706;48.254;16.422;2023-11-19T11:06:11;3.17;;;2.87;;
17181;SDS011;8706;48.254;16.422;2023-11-19T11:08:39;3.23;;;3.00;;
17181;SDS011;8706;48.254;16.422;2023-11-19T11:11:07;3.17;;;2.63;;
17181;SDS011;8706;48.254;16.422;2023-11-19T11:13:35;3.10;;;2.90;;
17181;SDS011;8706;48.254;16.422;2023-11-19T11:16:05;3.50;;;3.20;;
17181;SDS011;8706;48.254;16.422;2023-11-19T11:18:34;3.33;;;3.10;;
17181;SDS011;8706;48.254;16.422;2023-11-19T11:21:02;2.97;;;2.77;;
17181;SDS011;8706;48.254;16.422;2023-11-19T11:23:42;3.20;;;2.90;;
17181;SDS011;8706;48.254;16.422;2023-11-19T11:29:20;2.70;;;2.50;;
17181;SDS011;8706;48.254;16.422;2023-11-19T11:31:58;2.80;;;2.60;;
17181;SDS011;8706;48.254;16.422;2023-11-19T11:34:39;3.20;;;2.90;;
17181;SDS011;8706;48.254;16.422;2023-11-19T11:37:17;3.30;;;2.77;;
17181;SDS011;8706;48.254;16.422;2023-11-19T11:39:49;2.93;;;2.73;;
17181;SDS011;8706;48.254;16.422;2023-11-19T11:42:34;3.43;;;3.13;;
17181;SDS011;8706;48.254;16.422;2023-11-19T11:45:02;3.60;;;3.30;;
17181;SDS011;8706;48.254;16.422;2023-11-19T11:50:55;3.67;;;3.20;;
17181;SDS011;8706;48.254;16.422;2023-11-19T11:53:24;3.50;;;3.10;;
17181;SDS011;8706;48.254;16.422;2023-11-19T11:55:52;3.30;;;3.00;;
17181;SDS011;8706;48.254;16.422;2023-11-19T11:58:21;3.70;;;3.23;;
17181;SDS011;8706;48.254;16.422;2023-11-19T12:00:53;3.70;;;3.30;;
17181;SDS011;8706;48.254;16.422;2023-11-19T12:03:20;3.70;;;3.40;;
17181;SDS011;8706;48.254;16.422;2023-11-19T12:05:48;3.93;;;3.60;;
17181;SDS011;8706;48.254;16.422;2023-11-19T12:08:18;5.60;;;4.27;;
17181;SDS011;8706;48.254;16.422;2023-11-19T12:10:47;4.87;;;4.03;;
17181;SDS011;8706;48.254;16.422;2023-11-19T12:13:15;5.80;;;4.43;;
17181;SDS011;8706;48.254;16.422;2023-11-19T12:18:36;6.10;;;4.20;;
17181;SDS011;8706;48.254;16.422;2023-11-19T12:21:06;5.93;;;4.60;;
17181;SDS011;8706;48.254;16.422;2023-11-19T12:23:36;6.70;;;4.67;;
17181;SDS011;8706;48.254;16.422;2023-11-19T12:26:34;6.03;;;5.10;;
17181;SDS011;8706;48.254;16.422;2023-11-19T12:29:05;6.57;;;5.23;;
17181;SDS011;8706;48.254;16.422;2023-11-19T12:31:33;6.40;;;4.87;;
17181;SDS011;8706;48.254;16.422;2023-11-19T12:34:08;6.67;;;5.20;;
17181;SDS011;8706;48.254;16.422;2023-11-19T12:36:36;8.03;;;4.93;;
17181;SDS011;8706;48.254;16.422;2023-11-19T12:39:06;8.13;;;5.17;;
17181;SDS011;8706;48.254;16.422;2023-11-19T12:41:48;6.63;;;4.80;;
17181;SDS011;8706;48.254;16.422;2023-11-19T12:44:19;6.67;;;4.83;;
17181;SDS011;8706;48.254;16.422;2023-11-19T12:46:46;6.30;;;4.83;;
17181;SDS011;8706;48.254;16.422;2023-11-19T12:49:25;7.87;;;5.03;;
17181;SDS011;8706;48.254;16.422;2023-11-19T12:51:52;5.90;;;5.20;;
17181;SDS011;8706;48.254;16.422;2023-11-19T12:54:20;8.20;;;5.10;;
17181;SDS011;8706;48.254;16.422;2023-11-19T12:56:57;6.23;;;5.10;;
17181;SDS011;8706;48.254;16.422;2023-11-19T12:59:24;6.87;;;4.83;;
17181;SDS011;8706;48.254;16.422;2023-11-19T13:01:55;6.10;;;4.93;;
17181;SDS011;8706;48.254;16.422;2023-11-19T13:04:22;6.37;;;4.93;;
17181;SDS011;8706;48.254;16.422;2023-11-19T13:06:49;6.80;;;5.00;;
17181;SDS011;8706;48.254;16.422;2023-11-19T13:09:24;6.33;;;4.80;;
17181;SDS011;8706;48.254;16.422;2023-11-19T13:11:51;7.73;;;5.03;;
17181;SDS011;8706;48.254;16.422;2023-11-19T13:14:19;6.37;;;4.90;;
17181;SDS011;8706;48.254;16.422;2023-11-19T13:16:45;5.43;;;4.80;;
17181;SDS011;8706;48.254;16.422;2023-11-19T13:19:13;6.87;;;4.53;;
17181;SDS011;8706;48.254;16.422;2023-11-19T13:21:41;6.70;;;4.97;;
17181;SDS011;8706;48.254;16.422;2023-11-19T13:24:09;7.83;;;5.30;;
17181;SDS011;8706;48.254;16.422;2023-11-19T13:26:37;5.03;;;4.40;;
17181;SDS011;8706;48.254;16.422;2023-11-19T13:29:04;7.93;;;5.10;;
17181;SDS011;8706;48.254;16.422;2023-11-19T13:31:31;6.53;;;5.27;;
17181;SDS011;8706;48.254;16.422;2023-11-19T13:33:58;6.07;;;5.10;;
17181;SDS011;8706;48.254;16.422;2023-11-19T13:36:25;5.20;;;4.33;;
17181;SDS011;8706;48.254;16.422;2023-11-19T13:38:52;6.77;;;5.10;;
17181;SDS011;8706;48.254;16.422;2023-11-19T13:41:23;6.57;;;5.10;;
17181;SDS011;8706;48.254;16.422;2023-11-19T13:43:52;7.73;;;5.53;;
17181;SDS011;8706;48.254;16.422;2023-11-19T13:46:20;6.37;;;5.10;;
17181;SDS011;8706;48.254;16.422;2023-11-19T13:48:47;6.73;;;5.10;;
17181;SDS011;8706;48.254;16.422;2023-11-19T13:51:14;7.50;;;5.80;;
17181;SDS011;8706;48.254;16.422;2023-11-19T13:53:41;6.70;;;4.90;;
17181;SDS011;8706;48.254;16.422;2023-11-19T13:56:09;8.33;;;5.17;;
17181;SDS011;8706;48.254;16.422;2023-11-19T13:58:36;6.90;;;4.80;;
17181;SDS011;8706;48.254;16.422;2023-11-19T14:01:05;6.17;;;5.23;;
17181;SDS011;8706;48.254;16.422;2023-11-19T14:03:32;7.30;;;5.17;;
17181;SDS011;8706;48.254;16.422;2023-11-19T14:05:59;7.03;;;5.30;;
17181;SDS011;8706;48.254;16.422;2023-11-19T14:08:26;5.63;;;5.03;;
17181;SDS011;8706;48.254;16.422;2023-11-19T14:10:52;6.63;;;4.97;;
17181;SDS011;8706;48.254;16.422;2023-11-19T14:13:21;5.80;;;4.50;;
17181;SDS011;8706;48.254;16.422;2023-11-19T14:15:48;7.53;;;5.33;;
17181;SDS011;8706;48.254;16.422;2023-11-19T14:18:17;7.37;;;5.07;;
17181;SDS011;8706;48.254;16.422;2023-11-19T14:20:44;6.53;;;5.20;;
17181;SDS011;8706;48.254;16.422;2023-11-19T14:23:11;7.40;;;5.17;;
17181;SDS011;8706;48.254;16.422;2023-11-19T14:25:38;7.57;;;4.90;;
17181;SDS011;8706;48.254;16.422;2023-11-19T14:28:05;7.43;;;5.47;;
17181;SDS011;8706;48.254;16.422;2023-11-19T14:30:32;7.13;;;5.07;;
17181;SDS011;8706;48.254;16.422;2023-11-19T14:32:59;7.90;;;5.70;;
17181;SDS011;8706;48.254;16.422;2023-11-19T14:35:31;7.87;;;5.07;;
17181;SDS011;8706;48.254;16.422;2023-11-19T14:37:59;7.00;;;5.00;;
17181;SDS011;8706;48.254;16.422;2023-11-19T14:40:29;6.23;;;5.57;;
17181;SDS011;8706;48.254;16.422;2023-11-19T14:42:56;7.33;;;5.27;;
17181;SDS011;8706;48.254;16.422;2023-11-19T14:45:23;6.80;;;5.27;;
17181;SDS011;8706;48.254;16.422;2023-11-19T14:47:50;6.47;;;5.07;;
17181;SDS011;8706;48.254;16.422;2023-11-19T14:50:17;6.77;;;5.00;;
17181;SDS011;8706;48.254;16.422;2023-11-19T14:52:46;6.67;;;5.27;;
17181;SDS011;8706;48.254;16.422;2023-11-19T14:55:13;7.00;;;5.40;;
17181;SDS011;8706;48.254;16.422;2023-11-19T14:57:40;5.33;;;4.37;;
17181;SDS011;8706;48.254;16.422;2023-11-19T15:00:09;7.00;;;5.10;;
17181;SDS011;8706;48.254;16.422;2023-11-19T15:02:39;6.83;;;5.53;;